sensor_id;sensor_type;location;lat;lon;timestamp;P1;durP1;ratioP1;P2;durP2;ratioP2
35959;SDS011;22043;50.970;7.192;2023-04-06T00:01:29;13.00;;;6.88;;
35959;SDS011;22043;50.970;7.192;2023-04-06T00:03:55;11.15;;;6.22;;
35959;SDS011;22043;50.970;7.192;2023-04-06T00:06:20;10.70;;;6.70;;
35959;SDS011;22043;50.970;7.192;2023-04-06T00:08:46;12.68;;;7.28;;
35959;SDS011;22043;50.970;7.192;2023-04-06T00:11:12;17.75;;;6.13;;
35959;SDS011;22043;50.970;7.192;2023-04-06T00:13:37;12.18;;;6.70;;
35959;SDS011;22043;50.970;7.192;2023-04-06T00:16:03;10.23;;;6.47;;
35959;SDS011;22043;50.970;7.192;2023-04-06T00:18:30;10.17;;;5.67;;
35959;SDS011;22043;50.970;7.192;2023-04-06T00:20:55;11.88;;;6.25;;
35959;SDS011;22043;50.970;7.192;2023-04-06T00:23:21;9.52;;;5.90;;
35959;SDS011;22043;50.970;7.192;2023-04-06T00:25:47;10.68;;;6.25;;
35959;SDS011;22043;50.970;7.192;2023-04-06T00:28:12;12.07;;;6.20;;
35959;SDS011;22043;50.970;7.192;2023-04-06T00:30:38;10.77;;;6.10;;
35959;SDS011;22043;50.970;7.192;2023-04-06T00:33:03;9.60;;;6.22;;
35959;SDS011;22043;50.970;7.192;2023-04-06T00:35:29;9.35;;;5.65;;
35959;SDS011;22043;50.970;7.192;2023-04-06T00:37:54;9.25;;;5.47;;
35959;SDS011;22043;50.970;7.192;2023-04-06T00:40:20;11.07;;;6.57;;
35959;SDS011;22043;50.970;7.192;2023-04-06T00:42:45;10.85;;;5.57;;
35959;SDS011;22043;50.970;7.192;2023-04-06T00:45:11;15.40;;;5.90;;
35959;SDS011;22043;50.970;7.192;2023-04-06T00:47:36;11.52;;;6.10;;
35959;SDS011;22043;50.970;7.192;2023-04-06T00:50:02;10.93;;;5.43;;
35959;SDS011;22043;50.970;7.192;2023-04-06T00:52:27;10.75;;;6.30;;
35959;SDS011;22043;50.970;7.192;2023-04-06T00:54:53;10.65;;;5.13;;
35959;SDS011;22043;50.970;7.192;2023-04-06T00:57:20;9.00;;;5.30;;
35959;SDS011;22043;50.970;7.192;2023-04-06T00:59:51;16.02;;;5.80;;
35959;SDS011;22043;50.970;7.192;2023-04-06T01:02:19;10.73;;;5.65;;
35959;SDS011;22043;50.970;7.192;2023-04-06T01:04:48;14.70;;;6.35;;
35959;SDS011;22043;50.970;7.192;2023-04-06T01:07:22;16.08;;;5.80;;
35959;SDS011;22043;50.970;7.192;2023-04-06T01:10:01;23.83;;;6.82;;
35959;SDS011;22043;50.970;7.192;2023-04-06T01:12:29;11.73;;;5.63;;
35959;SDS011;22043;50.970;7.192;2023-04-06T01:14:56;9.15;;;5.40;;
35959;SDS011;22043;50.970;7.192;2023-04-06T01:17:22;9.25;;;4.88;;
35959;SDS011;22043;50.970;7.192;2023-04-06T01:19:48;9.35;;;5.43;;
35959;SDS011;22043;50.970;7.192;2023-04-06T01:22:22;10.02;;;5.25;;
35959;SDS011;22043;50.970;7.192;2023-04-06T01:24:59;11.27;;;5.23;;
35959;SDS011;22043;50.970;7.192;2023-04-06T01:27:41;13.57;;;5.90;;
35959;SDS011;22043;50.970;7.192;2023-04-06T01:30:10;9.68;;;5.80;;
35959;SDS011;22043;50.970;7.192;2023-04-06T01:32:45;10.45;;;5.05;;
35959;SDS011;22043;50.970;7.192;2023-04-06T01:35:13;9.80;;;5.07;;
35959;SDS011;22043;50.970;7.192;2023-04-06T01:37:46;10.43;;;5.90;;
35959;SDS011;22043;50.970;7.192;2023-04-06T01:40:18;9.98;;;5.80;;
35959;SDS011;22043;50.970;7.192;2023-04-06T01:42:48;10.68;;;5.63;;
35959;SDS011;22043;50.970;7.192;2023-04-06T01:45:20;10.05;;;5.38;;
35959;SDS011;22043;50.970;7.192;2023-04-06T01:47:46;10.88;;;4.47;;
35959;SDS011;22043;50.970;7.192;2023-04-06T01:50:11;10.93;;;5.22;;
35959;SDS011;22043;50.970;7.192;2023-04-06T01:52:42;15.25;;;5.65;;
35959;SDS011;22043;50.970;7.192;2023-04-06T01:55:09;8.17;;;4.63;;
35959;SDS011;22043;50.970;7.192;2023-04-06T01:57:52;10.40;;;5.00;;
35959;SDS011;22043;50.970;7.192;2023-04-06T02:00:29;8.88;;;4.75;;
35959;SDS011;22043;50.970;7.192;2023-04-06T02:02:55;7.05;;;4.38;;
35959;SDS011;22043;50.970;7.192;2023-04-06T02:05:25;9.65;;;5.18;;
35959;SDS011;22043;50.970;7.192;2023-04-06T02:07:52;12.30;;;5.85;;
35959;SDS011;22043;50.970;7.192;2023-04-06T02:10:26;14.00;;;6.00;;
35959;SDS011;22043;50.970;7.192;2023-04-06T02:12:52;9.45;;;5.13;;
35959;SDS011;22043;50.970;7.192;2023-04-06T02:15:23;11.45;;;5.88;;
35959;SDS011;22043;50.970;7.192;2023-04-06T02:17:49;10.35;;;5.43;;
35959;SDS011;22043;50.970;7.192;2023-04-06T02:20:14;10.32;;;6.05;;
35959;SDS011;22043;50.970;7.192;2023-04-06T02:22:40;9.88;;;5.13;;
35959;SDS011;22043;50.970;7.192;2023-04-06T02:25:05;12.68;;;5.63;;
35959;SDS011;22043;50.970;7.192;2023-04-06T02:27:32;12.18;;;5.90;;
35959;SDS011;22043;50.970;7.192;2023-04-06T02:29:57;8.45;;;5.15;;
35959;SDS011;22043;50.970;7.192;2023-04-06T02:32:23;8.15;;;4.97;;
35959;SDS011;22043;50.970;7.192;2023-04-06T02:34:49;8.82;;;4.85;;
35959;SDS011;22043;50.970;7.192;2023-04-06T02:37:17;12.23;;;5.70;;
35959;SDS011;22043;50.970;7.192;2023-04-06T02:39:42;9.82;;;5.50;;
35959;SDS011;22043;50.970;7.192;2023-04-06T02:42:08;14.73;;;5.50;;
35959;SDS011;22043;50.970;7.192;2023-04-06T02:44:34;10.45;;;5.75;;
35959;SDS011;22043;50.970;7.192;2023-04-06T02:47:00;8.63;;;4.43;;
35959;SDS011;22043;50.970;7.192;2023-04-06T02:49:26;8.07;;;4.88;;
35959;SDS011;22043;50.970;7.192;2023-04-06T02:51:54;25.65;;;7.22;;
35959;SDS011;22043;50.970;7.192;2023-04-06T02:54:24;10.50;;;5.15;;
35959;SDS011;22043;50.970;7.192;2023-04-06T02:56:50;13.38;;;5.68;;
35959;SDS011;22043;50.970;7.192;2023-04-06T02:59:16;9.23;;;5.32;;
35959;SDS011;22043;50.970;7.192;2023-04-06T03:01:48;10.13;;;6.10;;
35959;SDS011;22043;50.970;7.192;2023-04-06T03:04:14;9.20;;;5.18;;
35959;SDS011;22043;50.970;7.192;2023-04-06T03:06:39;10.38;;;5.60;;
35959;SDS011;22043;50.970;7.192;2023-04-06T03:09:15;10.73;;;5.38;;
35959;SDS011;22043;50.970;7.192;2023-04-06T03:11:42;9.27;;;4.53;;
35959;SDS011;22043;50.970;7.192;2023-04-06T03:14:08;8.60;;;5.57;;
35959;SDS011;22043;50.970;7.192;2023-04-06T03:16:33;8.23;;;5.28;;
35959;SDS011;22043;50.970;7.192;2023-04-06T03:19:00;15.38;;;5.68;;
35959;SDS011;22043;50.970;7.192;2023-04-06T03:21:26;8.75;;;5.35;;
35959;SDS011;22043;50.970;7.192;2023-04-06T03:23:52;13.77;;;6.10;;
35959;SDS011;22043;50.970;7.192;2023-04-06T03:26:18;11.77;;;5.88;;
35959;SDS011;22043;50.970;7.192;2023-04-06T03:28:44;11.70;;;5.97;;
35959;SDS011;22043;50.970;7.192;2023-04-06T03:31:09;10.13;;;5.97;;
35959;SDS011;22043;50.970;7.192;2023-04-06T03:33:38;10.82;;;5.47;;
35959;SDS011;22043;50.970;7.192;2023-04-06T03:36:04;8.65;;;5.10;;
35959;SDS011;22043;50.970;7.192;2023-04-06T03:38:33;11.70;;;5.93;;
35959;SDS011;22043;50.970;7.192;2023-04-06T03:41:02;8.02;;;4.57;;
35959;SDS011;22043;50.970;7.192;2023-04-06T03:43:28;9.13;;;5.40;;
35959;SDS011;22043;50.970;7.192;2023-04-06T03:45:53;9.27;;;4.88;;
35959;SDS011;22043;50.970;7.192;2023-04-06T03:48:19;11.65;;;5.88;;
35959;SDS011;22043;50.970;7.192;2023-04-06T03:50:45;10.73;;;5.22;;
35959;SDS011;22043;50.970;7.192;2023-04-06T03:53:10;10.43;;;5.45;;
35959;SDS011;22043;50.970;7.192;2023-04-06T03:55:36;11.85;;;5.15;;
35959;SDS011;22043;50.970;7.192;2023-04-06T03:58:01;10.25;;;5.22;;
35959;SDS011;22043;50.970;7.192;2023-04-06T04:00:27;12.50;;;5.47;;
35959;SDS011;22043;50.970;7.192;2023-04-06T04:02:54;8.60;;;5.20;;
35959;SDS011;22043;50.970;7.192;2023-04-06T04:05:20;9.00;;;5.57;;
35959;SDS011;22043;50.970;7.192;2023-04-06T04:07:50;11.00;;;5.32;;
35959;SDS011;22043;50.970;7.192;2023-04-06T04:10:16;10.50;;;5.45;;
35959;SDS011;22043;50.970;7.192;2023-04-06T04:12:42;9.05;;;5.40;;
35959;SDS011;22043;50.970;7.192;2023-04-06T04:15:07;12.10;;;6.03;;
35959;SDS011;22043;50.970;7.192;2023-04-06T04:17:33;13.32;;;5.57;;
35959;SDS011;22043;50.970;7.192;2023-04-06T04:19:59;12.73;;;6.47;;
35959;SDS011;22043;50.970;7.192;2023-04-06T04:22:24;10.48;;;5.22;;
35959;SDS011;22043;50.970;7.192;2023-04-06T04:24:50;11.25;;;5.55;;
35959;SDS011;22043;50.970;7.192;2023-04-06T04:27:16;12.40;;;5.50;;
35959;SDS011;22043;50.970;7.192;2023-04-06T04:29:41;9.63;;;5.45;;
35959;SDS011;22043;50.970;7.192;2023-04-06T04:32:10;12.02;;;5.50;;
35959;SDS011;22043;50.970;7.192;2023-04-06T04:34:36;10.18;;;5.55;;
35959;SDS011;22043;50.970;7.192;2023-04-06T04:37:06;8.55;;;5.18;;
35959;SDS011;22043;50.970;7.192;2023-04-06T04:39:45;9.27;;;4.57;;
35959;SDS011;22043;50.970;7.192;2023-04-06T04:42:10;9.27;;;5.07;;
35959;SDS011;22043;50.970;7.192;2023-04-06T04:44:44;9.85;;;5.07;;
35959;SDS011;22043;50.970;7.192;2023-04-06T04:47:10;10.82;;;5.43;;
35959;SDS011;22043;50.970;7.192;2023-04-06T04:49:42;12.10;;;5.25;;
35959;SDS011;22043;50.970;7.192;2023-04-06T04:52:09;10.07;;;5.18;;
35959;SDS011;22043;50.970;7.192;2023-04-06T04:54:50;7.80;;;4.43;;
35959;SDS011;22043;50.970;7.192;2023-04-06T04:57:22;9.93;;;5.78;;
35959;SDS011;22043;50.970;7.192;2023-04-06T04:59:48;9.50;;;4.78;;
35959;SDS011;22043;50.970;7.192;2023-04-06T05:02:17;11.50;;;5.20;;
35959;SDS011;22043;50.970;7.192;2023-04-06T05:04:58;10.32;;;5.45;;
35959;SDS011;22043;50.970;7.192;2023-04-06T05:07:25;9.63;;;5.32;;
35959;SDS011;22043;50.970;7.192;2023-04-06T05:09:53;8.50;;;5.13;;
35959;SDS011;22043;50.970;7.192;2023-04-06T05:12:23;9.30;;;5.60;;
35959;SDS011;22043;50.970;7.192;2023-04-06T05:15:01;14.18;;;5.93;;
35959;SDS011;22043;50.970;7.192;2023-04-06T05:17:27;10.55;;;4.70;;
35959;SDS011;22043;50.970;7.192;2023-04-06T05:19:54;11.15;;;5.72;;
35959;SDS011;22043;50.970;7.192;2023-04-06T05:22:23;10.25;;;5.38;;
35959;SDS011;22043;50.970;7.192;2023-04-06T05:24:57;9.40;;;4.85;;
35959;SDS011;22043;50.970;7.192;2023-04-06T05:27:22;8.68;;;5.32;;
35959;SDS011;22043;50.970;7.192;2023-04-06T05:29:48;9.27;;;4.78;;
35959;SDS011;22043;50.970;7.192;2023-04-06T05:32:14;10.02;;;4.95;;
35959;SDS011;22043;50.970;7.192;2023-04-06T05:34:40;9.95;;;5.45;;
35959;SDS011;22043;50.970;7.192;2023-04-06T05:37:06;10.48;;;5.50;;
35959;SDS011;22043;50.970;7.192;2023-04-06T05:39:31;10.68;;;5.10;;
35959;SDS011;22043;50.970;7.192;2023-04-06T05:41:58;10.68;;;5.47;;
35959;SDS011;22043;50.970;7.192;2023-04-06T05:44:38;10.15;;;5.03;;
35959;SDS011;22043;50.970;7.192;2023-04-06T05:47:08;10.35;;;5.60;;
35959;SDS011;22043;50.970;7.192;2023-04-06T05:49:36;10.30;;;4.07;;
35959;SDS011;22043;50.970;7.192;2023-04-06T05:52:05;11.90;;;5.47;;
35959;SDS011;22043;50.970;7.192;2023-04-06T05:54:31;9.55;;;4.65;;
35959;SDS011;22043;50.970;7.192;2023-04-06T05:57:01;10.02;;;5.70;;
35959;SDS011;22043;50.970;7.192;2023-04-06T05:59:27;10.43;;;5.50;;
35959;SDS011;22043;50.970;7.192;2023-04-06T06:01:52;8.70;;;5.40;;
35959;SDS011;22043;50.970;7.192;2023-04-06T06:04:19;13.95;;;5.82;;
35959;SDS011;22043;50.970;7.192;2023-04-06T06:06:46;10.90;;;4.93;;
35959;SDS011;22043;50.970;7.192;2023-04-06T06:09:15;9.57;;;5.50;;
35959;SDS011;22043;50.970;7.192;2023-04-06T06:11:49;9.57;;;4.68;;
35959;SDS011;22043;50.970;7.192;2023-04-06T06:14:16;8.18;;;5.32;;
35959;SDS011;22043;50.970;7.192;2023-04-06T06:16:42;10.55;;;5.55;;
35959;SDS011;22043;50.970;7.192;2023-04-06T06:19:10;9.73;;;5.20;;
35959;SDS011;22043;50.970;7.192;2023-04-06T06:21:36;8.75;;;4.53;;
35959;SDS011;22043;50.970;7.192;2023-04-06T06:24:04;7.88;;;5.38;;
35959;SDS011;22043;50.970;7.192;2023-04-06T06:26:30;9.27;;;5.30;;
35959;SDS011;22043;50.970;7.192;2023-04-06T06:28:57;8.15;;;4.60;;
35959;SDS011;22043;50.970;7.192;2023-04-06T06:31:22;9.63;;;5.07;;
35959;SDS011;22043;50.970;7.192;2023-04-06T06:33:51;11.68;;;5.07;;
35959;SDS011;22043;50.970;7.192;2023-04-06T06:36:18;11.25;;;4.68;;
35959;SDS011;22043;50.970;7.192;2023-04-06T06:38:44;8.20;;;4.80;;
35959;SDS011;22043;50.970;7.192;2023-04-06T06:41:10;8.77;;;4.80;;
35959;SDS011;22043;50.970;7.192;2023-04-06T06:43:37;11.35;;;5.88;;
35959;SDS011;22043;50.970;7.192;2023-04-06T06:46:06;7.28;;;4.50;;
35959;SDS011;22043;50.970;7.192;2023-04-06T06:48:32;13.02;;;5.20;;
35959;SDS011;22043;50.970;7.192;2023-04-06T06:50:57;9.43;;;4.63;;
35959;SDS011;22043;50.970;7.192;2023-04-06T06:53:23;9.45;;;4.95;;
35959;SDS011;22043;50.970;7.192;2023-04-06T06:55:49;9.70;;;5.00;;
35959;SDS011;22043;50.970;7.192;2023-04-06T06:58:18;7.20;;;4.38;;
35959;SDS011;22043;50.970;7.192;2023-04-06T07:00:47;11.40;;;5.82;;
35959;SDS011;22043;50.970;7.192;2023-04-06T07:03:13;12.02;;;5.10;;
35959;SDS011;22043;50.970;7.192;2023-04-06T07:05:38;11.50;;;6.22;;
35959;SDS011;22043;50.970;7.192;2023-04-06T07:08:05;10.55;;;5.38;;
35959;SDS011;22043;50.970;7.192;2023-04-06T07:10:30;11.32;;;6.82;;
35959;SDS011;22043;50.970;7.192;2023-04-06T07:12:55;9.50;;;5.35;;
35959;SDS011;22043;50.970;7.192;2023-04-06T07:15:21;8.75;;;4.55;;
35959;SDS011;22043;50.970;7.192;2023-04-06T07:17:47;8.68;;;4.90;;
35959;SDS011;22043;50.970;7.192;2023-04-06T07:20:13;8.90;;;5.30;;
35959;SDS011;22043;50.970;7.192;2023-04-06T07:22:39;11.77;;;5.40;;
35959;SDS011;22043;50.970;7.192;2023-04-06T07:25:05;9.90;;;5.40;;
35959;SDS011;22043;50.970;7.192;2023-04-06T07:27:31;7.85;;;4.85;;
35959;SDS011;22043;50.970;7.192;2023-04-06T07:29:58;7.13;;;4.50;;
35959;SDS011;22043;50.970;7.192;2023-04-06T07:32:24;11.10;;;5.25;;
35959;SDS011;22043;50.970;7.192;2023-04-06T07:34:49;8.63;;;5.13;;
35959;SDS011;22043;50.970;7.192;2023-04-06T07:37:15;10.10;;;5.30;;
35959;SDS011;22043;50.970;7.192;2023-04-06T07:39:41;9.05;;;5.65;;
35959;SDS011;22043;50.970;7.192;2023-04-06T07:42:06;10.38;;;5.65;;
35959;SDS011;22043;50.970;7.192;2023-04-06T07:44:32;10.10;;;4.95;;
35959;SDS011;22043;50.970;7.192;2023-04-06T07:46:58;14.15;;;5.38;;
35959;SDS011;22043;50.970;7.192;2023-04-06T07:49:23;9.88;;;5.78;;
35959;SDS011;22043;50.970;7.192;2023-04-06T07:51:49;15.38;;;6.20;;
35959;SDS011;22043;50.970;7.192;2023-04-06T07:54:15;10.82;;;5.57;;
35959;SDS011;22043;50.970;7.192;2023-04-06T07:56:40;10.68;;;5.80;;
35959;SDS011;22043;50.970;7.192;2023-04-06T07:59:06;10.25;;;5.78;;
35959;SDS011;22043;50.970;7.192;2023-04-06T08:01:31;10.82;;;6.25;;
35959;SDS011;22043;50.970;7.192;2023-04-06T08:03:57;11.68;;;5.72;;
35959;SDS011;22043;50.970;7.192;2023-04-06T08:06:22;12.55;;;5.75;;
35959;SDS011;22043;50.970;7.192;2023-04-06T08:08:48;9.32;;;5.10;;
35959;SDS011;22043;50.970;7.192;2023-04-06T08:11:13;11.07;;;5.40;;
35959;SDS011;22043;50.970;7.192;2023-04-06T08:13:39;11.13;;;6.45;;
35959;SDS011;22043;50.970;7.192;2023-04-06T08:16:04;14.45;;;6.13;;
35959;SDS011;22043;50.970;7.192;2023-04-06T08:18:30;10.05;;;5.28;;
35959;SDS011;22043;50.970;7.192;2023-04-06T08:20:55;9.57;;;5.80;;
35959;SDS011;22043;50.970;7.192;2023-04-06T08:23:22;14.50;;;6.55;;
35959;SDS011;22043;50.970;7.192;2023-04-06T08:25:47;11.40;;;6.07;;
35959;SDS011;22043;50.970;7.192;2023-04-06T08:28:13;13.95;;;6.30;;
35959;SDS011;22043;50.970;7.192;2023-04-06T08:30:41;14.27;;;5.88;;
35959;SDS011;22043;50.970;7.192;2023-04-06T08:33:07;16.05;;;6.63;;
35959;SDS011;22043;50.970;7.192;2023-04-06T08:35:33;14.18;;;7.38;;
35959;SDS011;22043;50.970;7.192;2023-04-06T08:37:58;12.10;;;6.25;;
35959;SDS011;22043;50.970;7.192;2023-04-06T08:40:23;14.38;;;6.50;;
35959;SDS011;22043;50.970;7.192;2023-04-06T08:42:50;13.68;;;6.65;;
35959;SDS011;22043;50.970;7.192;2023-04-06T08:45:19;14.82;;;5.80;;
35959;SDS011;22043;50.970;7.192;2023-04-06T08:47:47;11.95;;;6.70;;
35959;SDS011;22043;50.970;7.192;2023-04-06T08:50:14;13.00;;;6.05;;
35959;SDS011;22043;50.970;7.192;2023-04-06T08:52:43;12.38;;;5.78;;
35959;SDS011;22043;50.970;7.192;2023-04-06T08:55:11;11.02;;;6.15;;
35959;SDS011;22043;50.970;7.192;2023-04-06T08:57:36;14.35;;;6.57;;
35959;SDS011;22043;50.970;7.192;2023-04-06T09:00:03;12.65;;;6.50;;
35959;SDS011;22043;50.970;7.192;2023-04-06T09:02:29;12.55;;;7.65;;
35959;SDS011;22043;50.970;7.192;2023-04-06T09:04:55;10.50;;;5.90;;
35959;SDS011;22043;50.970;7.192;2023-04-06T09:07:21;12.15;;;6.20;;
35959;SDS011;22043;50.970;7.192;2023-04-06T09:09:47;13.55;;;6.45;;
35959;SDS011;22043;50.970;7.192;2023-04-06T09:12:29;11.65;;;6.38;;
35959;SDS011;22043;50.970;7.192;2023-04-06T09:14:56;13.93;;;6.75;;
35959;SDS011;22043;50.970;7.192;2023-04-06T09:17:23;19.88;;;6.57;;
35959;SDS011;22043;50.970;7.192;2023-04-06T09:19:53;13.05;;;6.40;;
35959;SDS011;22043;50.970;7.192;2023-04-06T09:22:19;13.38;;;7.32;;
35959;SDS011;22043;50.970;7.192;2023-04-06T09:24:49;13.45;;;7.82;;
35959;SDS011;22043;50.970;7.192;2023-04-06T09:27:16;12.15;;;6.40;;
35959;SDS011;22043;50.970;7.192;2023-04-06T09:29:42;15.05;;;7.32;;
35959;SDS011;22043;50.970;7.192;2023-04-06T09:32:08;12.43;;;6.70;;
35959;SDS011;22043;50.970;7.192;2023-04-06T09:34:41;12.43;;;6.70;;
35959;SDS011;22043;50.970;7.192;2023-04-06T09:37:13;13.68;;;6.47;;
35959;SDS011;22043;50.970;7.192;2023-04-06T09:39:43;12.48;;;7.07;;
35959;SDS011;22043;50.970;7.192;2023-04-06T09:42:09;14.55;;;7.22;;
35959;SDS011;22043;50.970;7.192;2023-04-06T09:44:35;12.40;;;6.65;;
35959;SDS011;22043;50.970;7.192;2023-04-06T09:47:00;12.23;;;6.22;;
35959;SDS011;22043;50.970;7.192;2023-04-06T09:49:30;14.90;;;7.25;;
35959;SDS011;22043;50.970;7.192;2023-04-06T09:52:04;14.38;;;7.03;;
35959;SDS011;22043;50.970;7.192;2023-04-06T09:54:32;13.02;;;7.38;;
35959;SDS011;22043;50.970;7.192;2023-04-06T09:57:07;14.00;;;7.00;;
35959;SDS011;22043;50.970;7.192;2023-04-06T10:02:33;16.40;;;7.22;;
35959;SDS011;22043;50.970;7.192;2023-04-06T10:08:10;14.57;;;6.90;;
35959;SDS011;22043;50.970;7.192;2023-04-06T10:10:37;17.38;;;7.57;;
35959;SDS011;22043;50.970;7.192;2023-04-06T10:13:05;13.82;;;7.35;;
35959;SDS011;22043;50.970;7.192;2023-04-06T10:15:32;14.02;;;7.40;;
35959;SDS011;22043;50.970;7.192;2023-04-06T10:17:58;14.52;;;7.32;;
35959;SDS011;22043;50.970;7.192;2023-04-06T10:20:35;13.80;;;6.75;;
35959;SDS011;22043;50.970;7.192;2023-04-06T10:23:19;14.27;;;6.88;;
35959;SDS011;22043;50.970;7.192;2023-04-06T10:25:53;14.57;;;7.55;;
35959;SDS011;22043;50.970;7.192;2023-04-06T10:28:22;13.95;;;7.38;;
35959;SDS011;22043;50.970;7.192;2023-04-06T10:30:48;15.60;;;7.22;;
35959;SDS011;22043;50.970;7.192;2023-04-06T10:33:17;17.50;;;7.30;;
35959;SDS011;22043;50.970;7.192;2023-04-06T10:35:44;17.60;;;7.93;;
35959;SDS011;22043;50.970;7.192;2023-04-06T10:38:09;16.05;;;7.10;;
35959;SDS011;22043;50.970;7.192;2023-04-06T10:40:37;16.10;;;7.50;;
35959;SDS011;22043;50.970;7.192;2023-04-06T10:43:07;13.45;;;7.60;;
35959;SDS011;22043;50.970;7.192;2023-04-06T10:45:34;16.55;;;7.55;;
35959;SDS011;22043;50.970;7.192;2023-04-06T10:48:00;16.90;;;7.60;;
35959;SDS011;22043;50.970;7.192;2023-04-06T10:50:25;18.23;;;7.30;;
35959;SDS011;22043;50.970;7.192;2023-04-06T10:53:03;13.38;;;7.25;;
35959;SDS011;22043;50.970;7.192;2023-04-06T10:55:29;16.15;;;8.05;;
35959;SDS011;22043;50.970;7.192;2023-04-06T10:57:55;15.50;;;7.57;;
35959;SDS011;22043;50.970;7.192;2023-04-06T11:00:21;18.50;;;7.53;;
35959;SDS011;22043;50.970;7.192;2023-04-06T11:02:46;14.63;;;7.95;;
35959;SDS011;22043;50.970;7.192;2023-04-06T11:05:12;15.27;;;7.57;;
35959;SDS011;22043;50.970;7.192;2023-04-06T11:07:39;17.92;;;8.57;;
35959;SDS011;22043;50.970;7.192;2023-04-06T11:10:05;15.65;;;7.85;;
35959;SDS011;22043;50.970;7.192;2023-04-06T11:12:32;16.08;;;8.30;;
35959;SDS011;22043;50.970;7.192;2023-04-06T11:15:01;16.52;;;7.63;;
35959;SDS011;22043;50.970;7.192;2023-04-06T11:17:36;12.93;;;7.28;;
35959;SDS011;22043;50.970;7.192;2023-04-06T11:20:02;16.40;;;8.60;;
35959;SDS011;22043;50.970;7.192;2023-04-06T11:22:30;14.33;;;7.73;;
35959;SDS011;22043;50.970;7.192;2023-04-06T11:25:05;17.27;;;8.10;;
35959;SDS011;22043;50.970;7.192;2023-04-06T11:27:32;13.73;;;7.40;;
35959;SDS011;22043;50.970;7.192;2023-04-06T11:29:59;17.50;;;8.32;;
35959;SDS011;22043;50.970;7.192;2023-04-06T11:32:25;15.32;;;8.27;;
35959;SDS011;22043;50.970;7.192;2023-04-06T11:34:50;15.95;;;7.80;;
35959;SDS011;22043;50.970;7.192;2023-04-06T11:37:16;14.65;;;8.55;;
35959;SDS011;22043;50.970;7.192;2023-04-06T11:39:51;17.60;;;9.25;;
35959;SDS011;22043;50.970;7.192;2023-04-06T11:42:23;16.88;;;8.20;;
35959;SDS011;22043;50.970;7.192;2023-04-06T11:44:50;18.33;;;9.07;;
35959;SDS011;22043;50.970;7.192;2023-04-06T11:47:17;16.42;;;8.82;;
35959;SDS011;22043;50.970;7.192;2023-04-06T11:49:43;18.42;;;8.55;;
35959;SDS011;22043;50.970;7.192;2023-04-06T11:52:16;18.70;;;9.43;;
35959;SDS011;22043;50.970;7.192;2023-04-06T11:54:49;16.85;;;9.02;;
35959;SDS011;22043;50.970;7.192;2023-04-06T11:57:17;15.90;;;8.67;;
35959;SDS011;22043;50.970;7.192;2023-04-06T11:59:43;18.83;;;9.25;;
35959;SDS011;22043;50.970;7.192;2023-04-06T12:02:09;19.50;;;9.85;;
35959;SDS011;22043;50.970;7.192;2023-04-06T12:04:35;17.48;;;8.52;;
35959;SDS011;22043;50.970;7.192;2023-04-06T12:07:01;15.35;;;8.15;;
35959;SDS011;22043;50.970;7.192;2023-04-06T12:09:27;17.50;;;7.97;;
35959;SDS011;22043;50.970;7.192;2023-04-06T12:11:52;17.35;;;8.50;;
35959;SDS011;22043;50.970;7.192;2023-04-06T12:14:18;16.20;;;8.63;;
35959;SDS011;22043;50.970;7.192;2023-04-06T12:16:43;16.42;;;8.80;;
35959;SDS011;22043;50.970;7.192;2023-04-06T12:19:09;15.30;;;7.82;;
35959;SDS011;22043;50.970;7.192;2023-04-06T12:21:35;17.25;;;8.98;;
35959;SDS011;22043;50.970;7.192;2023-04-06T12:24:04;17.10;;;8.63;;
35959;SDS011;22043;50.970;7.192;2023-04-06T12:26:30;15.70;;;8.35;;
35959;SDS011;22043;50.970;7.192;2023-04-06T12:28:56;18.67;;;8.27;;
35959;SDS011;22043;50.970;7.192;2023-04-06T12:31:22;14.55;;;7.25;;
35959;SDS011;22043;50.970;7.192;2023-04-06T12:33:48;14.23;;;7.45;;
35959;SDS011;22043;50.970;7.192;2023-04-06T12:36:15;17.15;;;8.02;;
35959;SDS011;22043;50.970;7.192;2023-04-06T12:38:44;15.20;;;8.38;;
35959;SDS011;22043;50.970;7.192;2023-04-06T12:41:10;14.85;;;7.50;;
35959;SDS011;22043;50.970;7.192;2023-04-06T12:43:36;15.05;;;7.65;;
35959;SDS011;22043;50.970;7.192;2023-04-06T12:46:02;15.43;;;8.45;;
35959;SDS011;22043;50.970;7.192;2023-04-06T12:48:28;14.63;;;7.70;;
35959;SDS011;22043;50.970;7.192;2023-04-06T12:51:03;16.45;;;7.18;;
35959;SDS011;22043;50.970;7.192;2023-04-06T12:53:30;12.65;;;6.43;;
35959;SDS011;22043;50.970;7.192;2023-04-06T12:56:29;13.57;;;6.60;;
35959;SDS011;22043;50.970;7.192;2023-04-06T13:02:43;11.05;;;6.70;;
35959;SDS011;22043;50.970;7.192;2023-04-06T13:05:12;12.43;;;6.57;;
35959;SDS011;22043;50.970;7.192;2023-04-06T13:07:40;13.00;;;6.70;;
35959;SDS011;22043;50.970;7.192;2023-04-06T13:10:05;13.07;;;6.80;;
35959;SDS011;22043;50.970;7.192;2023-04-06T13:12:31;15.18;;;7.85;;
35959;SDS011;22043;50.970;7.192;2023-04-06T13:14:56;13.18;;;6.72;;
35959;SDS011;22043;50.970;7.192;2023-04-06T13:17:22;13.57;;;6.40;;
35959;SDS011;22043;50.970;7.192;2023-04-06T13:19:47;13.40;;;7.07;;
35959;SDS011;22043;50.970;7.192;2023-04-06T13:22:13;13.05;;;7.18;;
35959;SDS011;22043;50.970;7.192;2023-04-06T13:24:38;17.95;;;8.98;;
35959;SDS011;22043;50.970;7.192;2023-04-06T13:27:04;13.45;;;7.55;;
35959;SDS011;22043;50.970;7.192;2023-04-06T13:29:29;11.38;;;7.00;;
35959;SDS011;22043;50.970;7.192;2023-04-06T13:31:55;14.18;;;6.95;;
35959;SDS011;22043;50.970;7.192;2023-04-06T13:34:20;10.27;;;5.65;;
35959;SDS011;22043;50.970;7.192;2023-04-06T13:36:46;11.63;;;6.25;;
35959;SDS011;22043;50.970;7.192;2023-04-06T13:39:11;16.73;;;6.70;;
35959;SDS011;22043;50.970;7.192;2023-04-06T13:41:36;12.13;;;6.05;;
35959;SDS011;22043;50.970;7.192;2023-04-06T13:44:02;14.40;;;6.43;;
35959;SDS011;22043;50.970;7.192;2023-04-06T13:46:27;11.45;;;5.40;;
35959;SDS011;22043;50.970;7.192;2023-04-06T13:48:53;11.68;;;6.63;;
35959;SDS011;22043;50.970;7.192;2023-04-06T13:51:18;10.43;;;5.90;;
35959;SDS011;22043;50.970;7.192;2023-04-06T13:53:44;13.02;;;6.25;;
35959;SDS011;22043;50.970;7.192;2023-04-06T13:56:09;11.05;;;6.05;;
35959;SDS011;22043;50.970;7.192;2023-04-06T13:58:35;10.82;;;5.80;;
35959;SDS011;22043;50.970;7.192;2023-04-06T14:01:07;13.25;;;6.40;;
35959;SDS011;22043;50.970;7.192;2023-04-06T14:03:34;10.40;;;6.55;;
35959;SDS011;22043;50.970;7.192;2023-04-06T14:06:00;11.75;;;6.20;;
35959;SDS011;22043;50.970;7.192;2023-04-06T14:08:25;12.07;;;6.15;;
35959;SDS011;22043;50.970;7.192;2023-04-06T14:10:51;12.73;;;6.35;;
35959;SDS011;22043;50.970;7.192;2023-04-06T14:13:16;14.77;;;6.35;;
35959;SDS011;22043;50.970;7.192;2023-04-06T14:15:42;15.40;;;6.25;;
35959;SDS011;22043;50.970;7.192;2023-04-06T14:18:08;10.20;;;5.93;;
35959;SDS011;22043;50.970;7.192;2023-04-06T14:20:33;8.98;;;5.63;;
35959;SDS011;22043;50.970;7.192;2023-04-06T14:23:00;10.90;;;5.07;;
35959;SDS011;22043;50.970;7.192;2023-04-06T14:25:26;8.87;;;5.20;;
35959;SDS011;22043;50.970;7.192;2023-04-06T14:27:51;9.85;;;5.10;;
35959;SDS011;22043;50.970;7.192;2023-04-06T14:30:17;10.10;;;4.63;;
35959;SDS011;22043;50.970;7.192;2023-04-06T14:32:43;11.07;;;5.43;;
35959;SDS011;22043;50.970;7.192;2023-04-06T14:35:09;8.57;;;4.57;;
35959;SDS011;22043;50.970;7.192;2023-04-06T14:37:35;6.45;;;3.97;;
35959;SDS011;22043;50.970;7.192;2023-04-06T14:40:00;6.25;;;3.90;;
35959;SDS011;22043;50.970;7.192;2023-04-06T14:42:27;9.82;;;4.82;;
35959;SDS011;22043;50.970;7.192;2023-04-06T14:44:52;9.82;;;4.78;;
35959;SDS011;22043;50.970;7.192;2023-04-06T14:47:18;13.50;;;5.50;;
35959;SDS011;22043;50.970;7.192;2023-04-06T14:49:54;9.57;;;5.22;;